sensor_id;sensor_type;location;lat;lon;timestamp;P1;durP1;ratioP1;P2;durP2;ratioP2
57465;SDS011;67033;44.984;20.068;2023-04-03T00:01:00;8.32;;;5.22;;
57465;SDS011;67033;44.984;20.068;2023-04-03T00:03:26;6.55;;;5.10;;
57465;SDS011;67033;44.984;20.068;2023-04-03T00:05:53;6.53;;;5.03;;
57465;SDS011;67033;44.984;20.068;2023-04-03T00:08:19;7.50;;;5.47;;
57465;SDS011;67033;44.984;20.068;2023-04-03T00:10:45;11.93;;;6.38;;
57465;SDS011;67033;44.984;20.068;2023-04-03T00:13:11;8.75;;;7.35;;
57465;SDS011;67033;44.984;20.068;2023-04-03T00:15:38;10.95;;;8.00;;
57465;SDS011;67033;44.984;20.068;2023-04-03T00:18:04;9.52;;;7.97;;
57465;SDS011;67033;44.984;20.068;2023-04-03T00:20:31;10.50;;;8.50;;
57465;SDS011;67033;44.984;20.068;2023-04-03T00:22:57;10.40;;;8.63;;
57465;SDS011;67033;44.984;20.068;2023-04-03T00:25:24;10.93;;;8.20;;
57465;SDS011;67033;44.984;20.068;2023-04-03T00:27:50;13.10;;;7.78;;
57465;SDS011;67033;44.984;20.068;2023-04-03T00:30:17;11.00;;;8.65;;
57465;SDS011;67033;44.984;20.068;2023-04-03T00:32:44;9.63;;;8.32;;
57465;SDS011;67033;44.984;20.068;2023-04-03T00:35:10;12.88;;;7.80;;
57465;SDS011;67033;44.984;20.068;2023-04-03T00:37:36;11.75;;;8.80;;
57465;SDS011;67033;44.984;20.068;2023-04-03T00:40:03;10.52;;;8.10;;
57465;SDS011;67033;44.984;20.068;2023-04-03T00:42:29;10.52;;;8.50;;
57465;SDS011;67033;44.984;20.068;2023-04-03T00:47:21;11.15;;;8.30;;
57465;SDS011;67033;44.984;20.068;2023-04-03T00:49:48;11.32;;;8.05;;
57465;SDS011;67033;44.984;20.068;2023-04-03T00:52:16;13.15;;;8.57;;
57465;SDS011;67033;44.984;20.068;2023-04-03T00:54:47;11.82;;;8.85;;
57465;SDS011;67033;44.984;20.068;2023-04-03T00:57:15;8.90;;;7.90;;
57465;SDS011;67033;44.984;20.068;2023-04-03T00:59:43;10.48;;;8.75;;
57465;SDS011;67033;44.984;20.068;2023-04-03T01:02:14;11.40;;;8.07;;
57465;SDS011;67033;44.984;20.068;2023-04-03T01:04:41;11.65;;;8.75;;
57465;SDS011;67033;44.984;20.068;2023-04-03T01:07:08;13.00;;;8.75;;
57465;SDS011;67033;44.984;20.068;2023-04-03T01:09:38;12.25;;;8.75;;
57465;SDS011;67033;44.984;20.068;2023-04-03T01:14:42;12.57;;;8.38;;
57465;SDS011;67033;44.984;20.068;2023-04-03T01:17:24;11.55;;;8.30;;
57465;SDS011;67033;44.984;20.068;2023-04-03T01:19:55;10.02;;;8.20;;
57465;SDS011;67033;44.984;20.068;2023-04-03T01:22:51;9.27;;;7.93;;
57465;SDS011;67033;44.984;20.068;2023-04-03T01:25:31;10.90;;;8.63;;
57465;SDS011;67033;44.984;20.068;2023-04-03T01:27:57;11.88;;;8.80;;
57465;SDS011;67033;44.984;20.068;2023-04-03T01:30:25;11.40;;;8.57;;
57465;SDS011;67033;44.984;20.068;2023-04-03T01:32:53;13.23;;;9.60;;
57465;SDS011;67033;44.984;20.068;2023-04-03T01:35:19;12.38;;;8.98;;
57465;SDS011;67033;44.984;20.068;2023-04-03T01:37:46;13.57;;;8.63;;
57465;SDS011;67033;44.984;20.068;2023-04-03T01:40:12;11.57;;;8.85;;
57465;SDS011;67033;44.984;20.068;2023-04-03T01:42:38;12.48;;;8.82;;
57465;SDS011;67033;44.984;20.068;2023-04-03T01:45:05;12.35;;;8.75;;
57465;SDS011;67033;44.984;20.068;2023-04-03T01:47:31;12.18;;;9.18;;
57465;SDS011;67033;44.984;20.068;2023-04-03T01:49:57;10.95;;;9.13;;
57465;SDS011;67033;44.984;20.068;2023-04-03T01:52:23;13.90;;;10.02;;
57465;SDS011;67033;44.984;20.068;2023-04-03T01:54:50;11.50;;;8.88;;
57465;SDS011;67033;44.984;20.068;2023-04-03T01:57:16;10.82;;;9.15;;
57465;SDS011;67033;44.984;20.068;2023-04-03T01:59:42;10.98;;;9.23;;
57465;SDS011;67033;44.984;20.068;2023-04-03T02:02:08;12.02;;;9.68;;
57465;SDS011;67033;44.984;20.068;2023-04-03T02:04:37;11.10;;;9.93;;
57465;SDS011;67033;44.984;20.068;2023-04-03T02:07:04;13.57;;;10.45;;
57465;SDS011;67033;44.984;20.068;2023-04-03T02:09:30;14.38;;;11.13;;
57465;SDS011;67033;44.984;20.068;2023-04-03T02:11:56;11.90;;;9.43;;
57465;SDS011;67033;44.984;20.068;2023-04-03T02:14:22;12.27;;;10.68;;
57465;SDS011;67033;44.984;20.068;2023-04-03T02:16:49;12.00;;;10.23;;
57465;SDS011;67033;44.984;20.068;2023-04-03T02:19:15;15.68;;;10.20;;
57465;SDS011;67033;44.984;20.068;2023-04-03T02:21:41;18.52;;;10.40;;
57465;SDS011;67033;44.984;20.068;2023-04-03T02:24:08;13.55;;;10.65;;
57465;SDS011;67033;44.984;20.068;2023-04-03T02:26:34;14.10;;;10.95;;
57465;SDS011;67033;44.984;20.068;2023-04-03T02:29:00;13.80;;;10.45;;
57465;SDS011;67033;44.984;20.068;2023-04-03T02:31:26;14.30;;;11.23;;
57465;SDS011;67033;44.984;20.068;2023-04-03T02:33:52;12.57;;;10.68;;
57465;SDS011;67033;44.984;20.068;2023-04-03T02:36:19;14.52;;;11.77;;
57465;SDS011;67033;44.984;20.068;2023-04-03T02:38:45;13.85;;;11.52;;
57465;SDS011;67033;44.984;20.068;2023-04-03T02:41:12;16.90;;;12.30;;
57465;SDS011;67033;44.984;20.068;2023-04-03T02:43:38;15.23;;;11.93;;
57465;SDS011;67033;44.984;20.068;2023-04-03T02:46:05;14.77;;;12.43;;
57465;SDS011;67033;44.984;20.068;2023-04-03T02:48:31;13.77;;;12.27;;
57465;SDS011;67033;44.984;20.068;2023-04-03T02:50:58;15.88;;;11.35;;
57465;SDS011;67033;44.984;20.068;2023-04-03T02:53:24;19.58;;;12.27;;
57465;SDS011;67033;44.984;20.068;2023-04-03T02:55:50;16.60;;;11.70;;
57465;SDS011;67033;44.984;20.068;2023-04-03T02:58:16;14.10;;;11.73;;
57465;SDS011;67033;44.984;20.068;2023-04-03T03:00:43;17.73;;;11.80;;
57465;SDS011;67033;44.984;20.068;2023-04-03T03:03:09;14.80;;;11.75;;
57465;SDS011;67033;44.984;20.068;2023-04-03T03:05:35;14.30;;;12.18;;
57465;SDS011;67033;44.984;20.068;2023-04-03T03:08:02;14.77;;;12.05;;
57465;SDS011;67033;44.984;20.068;2023-04-03T03:10:28;14.80;;;12.32;;
57465;SDS011;67033;44.984;20.068;2023-04-03T03:12:54;14.45;;;12.57;;
57465;SDS011;67033;44.984;20.068;2023-04-03T03:15:20;14.60;;;12.32;;
57465;SDS011;67033;44.984;20.068;2023-04-03T03:17:47;14.60;;;11.82;;
57465;SDS011;67033;44.984;20.068;2023-04-03T03:20:13;14.63;;;11.70;;
57465;SDS011;67033;44.984;20.068;2023-04-03T03:22:40;16.05;;;12.05;;
57465;SDS011;67033;44.984;20.068;2023-04-03T03:25:06;15.43;;;11.90;;
57465;SDS011;67033;44.984;20.068;2023-04-03T03:27:32;20.63;;;11.70;;
57465;SDS011;67033;44.984;20.068;2023-04-03T03:29:59;17.42;;;12.07;;
57465;SDS011;67033;44.984;20.068;2023-04-03T03:32:25;16.02;;;11.90;;
57465;SDS011;67033;44.984;20.068;2023-04-03T03:34:51;16.60;;;12.55;;
57465;SDS011;67033;44.984;20.068;2023-04-03T03:37:17;16.02;;;11.90;;
57465;SDS011;67033;44.984;20.068;2023-04-03T03:39:43;20.35;;;12.13;;
57465;SDS011;67033;44.984;20.068;2023-04-03T03:42:10;17.17;;;13.15;;
57465;SDS011;67033;44.984;20.068;2023-04-03T03:44:36;17.00;;;12.82;;
57465;SDS011;67033;44.984;20.068;2023-04-03T03:47:02;14.85;;;12.18;;
57465;SDS011;67033;44.984;20.068;2023-04-03T03:49:28;18.80;;;11.63;;
57465;SDS011;67033;44.984;20.068;2023-04-03T03:51:55;15.88;;;12.65;;
57465;SDS011;67033;44.984;20.068;2023-04-03T03:54:21;15.05;;;12.50;;
57465;SDS011;67033;44.984;20.068;2023-04-03T03:56:47;15.75;;;13.02;;
57465;SDS011;67033;44.984;20.068;2023-04-03T03:59:13;16.35;;;12.60;;
57465;SDS011;67033;44.984;20.068;2023-04-03T04:01:40;15.65;;;12.77;;
57465;SDS011;67033;44.984;20.068;2023-04-03T04:04:06;18.40;;;13.23;;
57465;SDS011;67033;44.984;20.068;2023-04-03T04:06:32;18.63;;;13.18;;
57465;SDS011;67033;44.984;20.068;2023-04-03T04:08:58;16.17;;;13.30;;
57465;SDS011;67033;44.984;20.068;2023-04-03T04:11:25;17.60;;;13.93;;
57465;SDS011;67033;44.984;20.068;2023-04-03T04:13:52;18.80;;;14.55;;
57465;SDS011;67033;44.984;20.068;2023-04-03T04:16:18;18.83;;;13.85;;
57465;SDS011;67033;44.984;20.068;2023-04-03T04:18:44;17.33;;;13.98;;
57465;SDS011;67033;44.984;20.068;2023-04-03T04:21:11;18.95;;;14.70;;
57465;SDS011;67033;44.984;20.068;2023-04-03T04:23:37;18.13;;;14.43;;
57465;SDS011;67033;44.984;20.068;2023-04-03T04:26:03;19.35;;;15.07;;
57465;SDS011;67033;44.984;20.068;2023-04-03T04:28:30;17.92;;;14.70;;
57465;SDS011;67033;44.984;20.068;2023-04-03T04:30:56;20.20;;;15.38;;
57465;SDS011;67033;44.984;20.068;2023-04-03T04:33:22;17.90;;;14.30;;
57465;SDS011;67033;44.984;20.068;2023-04-03T04:35:48;19.75;;;14.73;;
57465;SDS011;67033;44.984;20.068;2023-04-03T04:38:15;19.30;;;15.20;;
57465;SDS011;67033;44.984;20.068;2023-04-03T04:40:41;18.13;;;13.52;;
57465;SDS011;67033;44.984;20.068;2023-04-03T04:43:07;19.40;;;13.65;;
57465;SDS011;67033;44.984;20.068;2023-04-03T04:45:33;16.15;;;13.98;;
57465;SDS011;67033;44.984;20.068;2023-04-03T04:48:00;17.77;;;14.65;;
57465;SDS011;67033;44.984;20.068;2023-04-03T04:50:26;18.45;;;14.18;;
57465;SDS011;67033;44.984;20.068;2023-04-03T04:52:52;20.95;;;14.57;;
57465;SDS011;67033;44.984;20.068;2023-04-03T04:55:18;19.33;;;14.45;;
57465;SDS011;67033;44.984;20.068;2023-04-03T04:57:44;19.75;;;15.27;;
57465;SDS011;67033;44.984;20.068;2023-04-03T05:00:10;27.02;;;17.58;;
57465;SDS011;67033;44.984;20.068;2023-04-03T05:02:37;18.65;;;15.02;;
57465;SDS011;67033;44.984;20.068;2023-04-03T05:05:03;19.45;;;15.25;;
57465;SDS011;67033;44.984;20.068;2023-04-03T05:07:29;22.23;;;16.10;;
57465;SDS011;67033;44.984;20.068;2023-04-03T05:09:55;18.08;;;14.02;;
57465;SDS011;67033;44.984;20.068;2023-04-03T05:12:21;20.58;;;15.18;;
57465;SDS011;67033;44.984;20.068;2023-04-03T05:14:48;17.27;;;14.23;;
57465;SDS011;67033;44.984;20.068;2023-04-03T05:17:14;17.13;;;13.32;;
57465;SDS011;67033;44.984;20.068;2023-04-03T05:19:40;16.80;;;12.73;;
57465;SDS011;67033;44.984;20.068;2023-04-03T05:22:06;16.02;;;12.88;;
57465;SDS011;67033;44.984;20.068;2023-04-03T05:24:32;19.83;;;13.35;;
57465;SDS011;67033;44.984;20.068;2023-04-03T05:26:58;18.05;;;13.45;;
57465;SDS011;67033;44.984;20.068;2023-04-03T05:29:25;13.82;;;12.13;;
57465;SDS011;67033;44.984;20.068;2023-04-03T05:31:51;14.18;;;11.13;;
57465;SDS011;67033;44.984;20.068;2023-04-03T05:34:17;12.63;;;10.70;;
57465;SDS011;67033;44.984;20.068;2023-04-03T05:36:43;15.73;;;11.30;;
57465;SDS011;67033;44.984;20.068;2023-04-03T05:39:09;14.75;;;10.45;;
57465;SDS011;67033;44.984;20.068;2023-04-03T05:41:36;11.93;;;9.20;;
57465;SDS011;67033;44.984;20.068;2023-04-03T05:44:02;13.68;;;9.98;;
57465;SDS011;67033;44.984;20.068;2023-04-03T05:46:28;32.78;;;11.38;;
57465;SDS011;67033;44.984;20.068;2023-04-03T05:48:55;13.07;;;8.20;;
57465;SDS011;67033;44.984;20.068;2023-04-03T05:51:25;19.20;;;11.30;;
57465;SDS011;67033;44.984;20.068;2023-04-03T05:54:13;10.15;;;5.95;;
57465;SDS011;67033;44.984;20.068;2023-04-03T05:56:41;8.35;;;4.72;;
57465;SDS011;67033;44.984;20.068;2023-04-03T05:59:08;4.43;;;3.83;;
57465;SDS011;67033;44.984;20.068;2023-04-03T06:01:34;4.45;;;3.67;;
57465;SDS011;67033;44.984;20.068;2023-04-03T06:04:00;5.50;;;3.55;;
57465;SDS011;67033;44.984;20.068;2023-04-03T06:09:12;4.93;;;4.10;;
57465;SDS011;67033;44.984;20.068;2023-04-03T06:11:39;5.10;;;4.07;;
57465;SDS011;67033;44.984;20.068;2023-04-03T06:14:07;5.90;;;4.90;;
57465;SDS011;67033;44.984;20.068;2023-04-03T06:16:33;4.93;;;4.05;;
57465;SDS011;67033;44.984;20.068;2023-04-03T06:18:59;6.35;;;4.05;;
57465;SDS011;67033;44.984;20.068;2023-04-03T06:21:25;5.85;;;3.20;;
57465;SDS011;67033;44.984;20.068;2023-04-03T06:23:52;4.05;;;3.28;;
57465;SDS011;67033;44.984;20.068;2023-04-03T06:26:18;3.40;;;2.80;;
57465;SDS011;67033;44.984;20.068;2023-04-03T06:28:44;6.90;;;4.78;;
57465;SDS011;67033;44.984;20.068;2023-04-03T06:31:10;8.35;;;5.25;;
57465;SDS011;67033;44.984;20.068;2023-04-03T06:33:36;5.57;;;3.17;;
57465;SDS011;67033;44.984;20.068;2023-04-03T06:36:04;4.55;;;3.42;;
57465;SDS011;67033;44.984;20.068;2023-04-03T06:38:31;4.93;;;3.65;;
57465;SDS011;67033;44.984;20.068;2023-04-03T06:40:57;4.03;;;3.58;;
57465;SDS011;67033;44.984;20.068;2023-04-03T06:43:23;3.83;;;3.03;;
57465;SDS011;67033;44.984;20.068;2023-04-03T06:45:50;3.22;;;2.80;;
57465;SDS011;67033;44.984;20.068;2023-04-03T06:48:16;5.93;;;5.07;;
57465;SDS011;67033;44.984;20.068;2023-04-03T06:50:42;5.00;;;3.72;;
57465;SDS011;67033;44.984;20.068;2023-04-03T06:53:09;5.25;;;3.67;;
57465;SDS011;67033;44.984;20.068;2023-04-03T06:55:35;2.78;;;2.38;;
57465;SDS011;67033;44.984;20.068;2023-04-03T06:58:02;3.47;;;2.78;;
57465;SDS011;67033;44.984;20.068;2023-04-03T07:00:29;3.70;;;2.55;;
57465;SDS011;67033;44.984;20.068;2023-04-03T07:02:55;4.60;;;2.55;;
57465;SDS011;67033;44.984;20.068;2023-04-03T07:05:23;3.00;;;2.70;;
57465;SDS011;67033;44.984;20.068;2023-04-03T07:07:50;4.55;;;2.70;;
57465;SDS011;67033;44.984;20.068;2023-04-03T07:10:16;3.45;;;2.60;;
57465;SDS011;67033;44.984;20.068;2023-04-03T07:12:42;4.63;;;2.90;;
57465;SDS011;67033;44.984;20.068;2023-04-03T07:15:09;3.92;;;2.78;;
57465;SDS011;67033;44.984;20.068;2023-04-03T07:17:35;2.50;;;2.30;;
57465;SDS011;67033;44.984;20.068;2023-04-03T07:20:02;4.15;;;2.60;;
57465;SDS011;67033;44.984;20.068;2023-04-03T07:22:29;4.15;;;2.50;;
57465;SDS011;67033;44.984;20.068;2023-04-03T07:24:55;2.97;;;2.22;;
57465;SDS011;67033;44.984;20.068;2023-04-03T07:27:22;4.97;;;2.60;;
57465;SDS011;67033;44.984;20.068;2023-04-03T07:29:48;2.25;;;2.05;;
57465;SDS011;67033;44.984;20.068;2023-04-03T07:32:15;2.63;;;1.92;;
57465;SDS011;67033;44.984;20.068;2023-04-03T07:34:41;3.58;;;2.75;;
57465;SDS011;67033;44.984;20.068;2023-04-03T07:37:07;4.20;;;2.83;;
57465;SDS011;67033;44.984;20.068;2023-04-03T07:39:34;3.60;;;2.65;;
57465;SDS011;67033;44.984;20.068;2023-04-03T07:42:00;3.50;;;2.17;;
57465;SDS011;67033;44.984;20.068;2023-04-03T07:44:27;3.75;;;2.60;;
57465;SDS011;67033;44.984;20.068;2023-04-03T07:46:53;2.92;;;2.58;;
57465;SDS011;67033;44.984;20.068;2023-04-03T07:49:21;4.10;;;2.70;;
57465;SDS011;67033;44.984;20.068;2023-04-03T07:51:51;4.07;;;2.60;;
57465;SDS011;67033;44.984;20.068;2023-04-03T07:54:18;3.28;;;2.47;;
57465;SDS011;67033;44.984;20.068;2023-04-03T07:56:44;4.40;;;2.38;;
57465;SDS011;67033;44.984;20.068;2023-04-03T07:59:10;2.30;;;2.10;;
57465;SDS011;67033;44.984;20.068;2023-04-03T08:01:37;3.17;;;2.70;;
57465;SDS011;67033;44.984;20.068;2023-04-03T08:04:03;4.13;;;3.20;;
57465;SDS011;67033;44.984;20.068;2023-04-03T08:06:30;4.20;;;2.72;;
57465;SDS011;67033;44.984;20.068;2023-04-03T08:09:00;6.25;;;2.25;;
57465;SDS011;67033;44.984;20.068;2023-04-03T08:11:26;3.25;;;2.70;;
57465;SDS011;67033;44.984;20.068;2023-04-03T08:13:53;5.35;;;4.78;;
57465;SDS011;67033;44.984;20.068;2023-04-03T08:16:20;5.47;;;4.22;;
57465;SDS011;67033;44.984;20.068;2023-04-03T08:18:48;2.63;;;2.38;;
57465;SDS011;67033;44.984;20.068;2023-04-03T08:21:14;3.03;;;2.28;;
57465;SDS011;67033;44.984;20.068;2023-04-03T08:23:41;5.90;;;2.80;;
57465;SDS011;67033;44.984;20.068;2023-04-03T08:26:14;9.88;;;6.40;;
57465;SDS011;67033;44.984;20.068;2023-04-03T08:28:40;3.70;;;2.63;;
57465;SDS011;67033;44.984;20.068;2023-04-03T08:31:08;3.95;;;2.75;;
57465;SDS011;67033;44.984;20.068;2023-04-03T08:33:36;3.78;;;2.70;;
57465;SDS011;67033;44.984;20.068;2023-04-03T08:36:03;3.55;;;2.50;;
57465;SDS011;67033;44.984;20.068;2023-04-03T08:38:30;3.25;;;2.72;;
57465;SDS011;67033;44.984;20.068;2023-04-03T08:41:01;4.80;;;3.17;;
57465;SDS011;67033;44.984;20.068;2023-04-03T08:46:02;2.85;;;2.28;;
57465;SDS011;67033;44.984;20.068;2023-04-03T08:48:33;3.83;;;2.40;;
57465;SDS011;67033;44.984;20.068;2023-04-03T08:53:28;4.40;;;2.92;;
57465;SDS011;67033;44.984;20.068;2023-04-03T08:55:57;4.38;;;2.85;;
57465;SDS011;67033;44.984;20.068;2023-04-03T08:58:29;4.03;;;3.13;;
57465;SDS011;67033;44.984;20.068;2023-04-03T09:03:29;3.65;;;1.80;;
57465;SDS011;67033;44.984;20.068;2023-04-03T09:06:11;2.30;;;2.10;;
57465;SDS011;67033;44.984;20.068;2023-04-03T09:17:03;2.78;;;2.35;;
57465;SDS011;67033;44.984;20.068;2023-04-03T09:19:41;2.47;;;2.20;;
57465;SDS011;67033;44.984;20.068;2023-04-03T09:24:50;3.17;;;1.95;;
57465;SDS011;67033;44.984;20.068;2023-04-03T09:27:24;2.45;;;2.00;;
57465;SDS011;67033;44.984;20.068;2023-04-03T09:29:50;3.60;;;1.80;;
57465;SDS011;67033;44.984;20.068;2023-04-03T09:32:21;2.28;;;2.08;;
57465;SDS011;67033;44.984;20.068;2023-04-03T09:34:53;2.75;;;1.80;;
57465;SDS011;67033;44.984;20.068;2023-04-03T09:37:43;1.73;;;1.45;;
57465;SDS011;67033;44.984;20.068;2023-04-03T09:43:19;4.10;;;1.90;;
57465;SDS011;67033;44.984;20.068;2023-04-03T09:45:48;2.17;;;1.83;;
57465;SDS011;67033;44.984;20.068;2023-04-03T09:48:22;1.83;;;1.73;;
57465;SDS011;67033;44.984;20.068;2023-04-03T09:53:28;2.28;;;1.50;;
57465;SDS011;67033;44.984;20.068;2023-04-03T09:55:58;2.88;;;1.83;;
57465;SDS011;67033;44.984;20.068;2023-04-03T09:58:29;2.75;;;2.08;;
57465;SDS011;67033;44.984;20.068;2023-04-03T10:04:04;2.35;;;2.15;;
57465;SDS011;67033;44.984;20.068;2023-04-03T10:06:43;3.50;;;1.98;;
57465;SDS011;67033;44.984;20.068;2023-04-03T10:09:17;1.80;;;1.30;;
57465;SDS011;67033;44.984;20.068;2023-04-03T10:11:58;1.80;;;1.55;;
57465;SDS011;67033;44.984;20.068;2023-04-03T10:14:29;3.28;;;1.75;;
57465;SDS011;67033;44.984;20.068;2023-04-03T10:19:42;1.83;;;1.40;;
57465;SDS011;67033;44.984;20.068;2023-04-03T10:33:50;3.13;;;1.00;;
57465;SDS011;67033;44.984;20.068;2023-04-03T10:36:36;4.05;;;1.60;;
57465;SDS011;67033;44.984;20.068;2023-04-03T10:50:36;1.70;;;1.60;;
57465;SDS011;67033;44.984;20.068;2023-04-03T10:55:36;1.90;;;1.60;;
57465;SDS011;67033;44.984;20.068;2023-04-03T10:58:10;1.70;;;1.60;;
57465;SDS011;67033;44.984;20.068;2023-04-03T11:01:01;2.05;;;1.80;;
57465;SDS011;67033;44.984;20.068;2023-04-03T11:03:40;3.30;;;1.88;;
57465;SDS011;67033;44.984;20.068;2023-04-03T11:06:11;4.85;;;1.80;;
57465;SDS011;67033;44.984;20.068;2023-04-03T11:08:44;2.13;;;1.90;;
57465;SDS011;67033;44.984;20.068;2023-04-03T11:11:17;2.72;;;1.60;;
57465;SDS011;67033;44.984;20.068;2023-04-03T11:14:08;2.30;;;1.73;;
57465;SDS011;67033;44.984;20.068;2023-04-03T11:17:39;1.15;;;1.15;;
57465;SDS011;67033;44.984;20.068;2023-04-03T11:27:48;3.55;;;1.55;;
57465;SDS011;67033;44.984;20.068;2023-04-03T11:36:23;2.78;;;2.33;;
57465;SDS011;67033;44.984;20.068;2023-04-03T11:38:53;2.08;;;1.70;;
57465;SDS011;67033;44.984;20.068;2023-04-03T11:41:26;3.25;;;1.38;;
57465;SDS011;67033;44.984;20.068;2023-04-03T12:05:56;1.35;;;1.25;;
57465;SDS011;67033;44.984;20.068;2023-04-03T12:29:38;1.27;;;1.17;;
57465;SDS011;67033;44.984;20.068;2023-04-03T12:32:32;1.17;;;1.08;;
57465;SDS011;67033;44.984;20.068;2023-04-03T12:46:38;2.88;;;1.08;;
57465;SDS011;67033;44.984;20.068;2023-04-03T12:49:18;5.15;;;2.55;;
57465;SDS011;67033;44.984;20.068;2023-04-03T12:51:54;2.78;;;2.05;;
57465;SDS011;67033;44.984;20.068;2023-04-03T12:57:08;25.80;;;6.70;;
57465;SDS011;67033;44.984;20.068;2023-04-03T12:59:55;58.70;;;18.30;;
57465;SDS011;67033;44.984;20.068;2023-04-03T13:02:26;9.93;;;4.70;;
57465;SDS011;67033;44.984;20.068;2023-04-03T13:04:59;24.13;;;12.00;;
57465;SDS011;67033;44.984;20.068;2023-04-03T13:07:31;10.68;;;6.38;;
57465;SDS011;67033;44.984;20.068;2023-04-03T13:12:25;23.67;;;11.38;;
57465;SDS011;67033;44.984;20.068;2023-04-03T13:14:56;6.55;;;4.00;;
57465;SDS011;67033;44.984;20.068;2023-04-03T13:17:25;13.82;;;6.20;;
57465;SDS011;67033;44.984;20.068;2023-04-03T13:19:52;4.43;;;2.20;;
57465;SDS011;67033;44.984;20.068;2023-04-03T13:22:29;2.67;;;1.60;;
57465;SDS011;67033;44.984;20.068;2023-04-03T13:25:05;2.35;;;1.80;;
57465;SDS011;67033;44.984;20.068;2023-04-03T13:27:32;2.90;;;1.70;;
57465;SDS011;67033;44.984;20.068;2023-04-03T13:29:59;2.83;;;1.85;;
57465;SDS011;67033;44.984;20.068;2023-04-03T13:32:27;4.25;;;2.70;;
57465;SDS011;67033;44.984;20.068;2023-04-03T13:34:56;3.70;;;2.33;;
57465;SDS011;67033;44.984;20.068;2023-04-03T13:37:27;3.42;;;2.30;;
57465;SDS011;67033;44.984;20.068;2023-04-03T13:42:35;29.27;;;7.47;;
57465;SDS011;67033;44.984;20.068;2023-04-03T13:45:22;141.73;;;47.35;;
57465;SDS011;67033;44.984;20.068;2023-04-03T13:47:53;29.58;;;12.02;;
57465;SDS011;67033;44.984;20.068;2023-04-03T13:50:33;32.80;;;14.27;;
57465;SDS011;67033;44.984;20.068;2023-04-03T13:53:14;53.05;;;21.63;;
57465;SDS011;67033;44.984;20.068;2023-04-03T13:55:54;40.10;;;19.13;;
57465;SDS011;67033;44.984;20.068;2023-04-03T13:58:25;11.48;;;5.32;;
57465;SDS011;67033;44.984;20.068;2023-04-03T14:00:55;9.18;;;3.72;;
57465;SDS011;67033;44.984;20.068;2023-04-03T14:03:22;6.30;;;2.55;;
57465;SDS011;67033;44.984;20.068;2023-04-03T14:05:57;8.45;;;3.10;;
57465;SDS011;67033;44.984;20.068;2023-04-03T14:08:24;9.90;;;3.58;;
57465;SDS011;67033;44.984;20.068;2023-04-03T14:10:50;2.83;;;1.60;;
57465;SDS011;67033;44.984;20.068;2023-04-03T14:13:17;3.95;;;2.05;;
57465;SDS011;67033;44.984;20.068;2023-04-03T14:15:45;2.47;;;1.52;;
57465;SDS011;67033;44.984;20.068;2023-04-03T14:18:14;5.50;;;2.17;;
57465;SDS011;67033;44.984;20.068;2023-04-03T14:20:42;6.40;;;1.80;;
57465;SDS011;67033;44.984;20.068;2023-04-03T14:23:08;2.80;;;1.90;;
57465;SDS011;67033;44.984;20.068;2023-04-03T14:25:35;4.32;;;2.30;;
57465;SDS011;67033;44.984;20.068;2023-04-03T14:28:01;3.45;;;2.60;;
57465;SDS011;67033;44.984;20.068;2023-04-03T14:33:09;5.30;;;2.70;;
57465;SDS011;67033;44.984;20.068;2023-04-03T14:35:41;2.47;;;1.80;;
57465;SDS011;67033;44.984;20.068;2023-04-03T14:38:24;3.15;;;1.80;;
57465;SDS011;67033;44.984;20.068;2023-04-03T14:40:52;7.45;;;2.50;;
57465;SDS011;67033;44.984;20.068;2023-04-03T14:43:19;19.88;;;2.60;;
57465;SDS011;67033;44.984;20.068;2023-04-03T14:45:46;2.90;;;2.20;;
57465;SDS011;67033;44.984;20.068;2023-04-03T14:48:18;2.30;;;1.65;;
57465;SDS011;67033;44.984;20.068;2023-04-03T14:50:46;2.15;;;1.67;;
57465;SDS011;67033;44.984;20.068;2023-04-03T14:53:13;5.40;;;1.95;;
57465;SDS011;67033;44.984;20.068;2023-04-03T14:55:41;2.92;;;2.13;;
57465;SDS011;67033;44.984;20.068;2023-04-03T14:58:14;2.85;;;1.63;;
57465;SDS011;67033;44.984;20.068;2023-04-03T15:00:42;2.97;;;1.35;;
57465;SDS011;67033;44.984;20.068;2023-04-03T15:03:13;4.15;;;1.23;;
57465;SDS011;67033;44.984;20.068;2023-04-03T15:05:47;5.07;;;3.13;;
57465;SDS011;67033;44.984;20.068;2023-04-03T15:08:19;6.85;;;3.50;;
57465;SDS011;67033;44.984;20.068;2023-04-03T15:10:49;2.33;;;1.95;;
57465;SDS011;67033;44.984;20.068;2023-04-03T15:13:18;5.13;;;2.03;;
57465;SDS011;67033;44.984;20.068;2023-04-03T15:15:44;3.13;;;1.95;;
57465;SDS011;67033;44.984;20.068;2023-04-03T15:18:15;4.40;;;1.50;;
57465;SDS011;67033;44.984;20.068;2023-04-03T15:20:46;5.25;;;1.95;;
57465;SDS011;67033;44.984;20.068;2023-04-03T15:23:13;2.13;;;1.25;;
57465;SDS011;67033;44.984;20.068;2023-04-03T15:25:41;3.85;;;1.58;;
57465;SDS011;67033;44.984;20.068;2023-04-03T15:28:09;2.00;;;1.40;;
57465;SDS011;67033;44.984;20.068;2023-04-03T15:30:44;1.90;;;1.20;;
57465;SDS011;67033;44.984;20.068;2023-04-03T15:33:10;3.38;;;1.15;;
57465;SDS011;67033;44.984;20.068;2023-04-03T15:35:35;2.17;;;1.13;;
57465;SDS011;67033;44.984;20.068;2023-04-03T15:38:01;4.15;;;1.08;;
57465;SDS011;67033;44.984;20.068;2023-04-03T15:40:27;2.53;;;1.10;;
57465;SDS011;67033;44.984;20.068;2023-04-03T15:42:53;5.13;;;1.98;;
57465;SDS011;67033;44.984;20.068;2023-04-03T15:45:19;1.30;;;1.02;;
57465;SDS011;67033;44.984;20.068;2023-04-03T15:47:46;2.90;;;1.40;;
57465;SDS011;67033;44.984;20.068;2023-04-03T15:50:12;4.22;;;1.60;;
57465;SDS011;67033;44.984;20.068;2023-04-03T15:52:38;149.35;;;32.20;;
57465;SDS011;67033;44.984;20.068;2023-04-03T15:55:04;117.70;;;36.00;;
57465;SDS011;67033;44.984;20.068;2023-04-03T15:57:31;119.65;;;33.75;;
57465;SDS011;67033;44.984;20.068;2023-04-03T15:59:57;34.17;;;16.98;;
57465;SDS011;67033;44.984;20.068;2023-04-03T16:02:23;5.45;;;3.30;;
57465;SDS011;67033;44.984;20.068;2023-04-03T16:04:53;13.30;;;8.83;;
57465;SDS011;67033;44.984;20.068;2023-04-03T16:07:20;5.93;;;4.03;;
57465;SDS011;67033;44.984;20.068;2023-04-03T16:09:46;6.22;;;3.10;;
57465;SDS011;67033;44.984;20.068;2023-04-03T16:12:12;5.15;;;3.15;;
57465;SDS011;67033;44.984;20.068;2023-04-03T16:14:37;7.90;;;3.42;;
57465;SDS011;67033;44.984;20.068;2023-04-03T16:17:03;5.85;;;3.10;;
57465;SDS011;67033;44.984;20.068;2023-04-03T16:19:29;4.13;;;1.88;;
57465;SDS011;67033;44.984;20.068;2023-04-03T16:21:55;3.70;;;2.50;;
57465;SDS011;67033;44.984;20.068;2023-04-03T16:24:21;5.30;;;3.00;;
57465;SDS011;67033;44.984;20.068;2023-04-03T16:26:47;7.13;;;3.97;;
57465;SDS011;67033;44.984;20.068;2023-04-03T16:29:13;26.88;;;14.50;;
57465;SDS011;67033;44.984;20.068;2023-04-03T16:31:39;53.15;;;19.60;;
57465;SDS011;67033;44.984;20.068;2023-04-03T16:34:05;25.38;;;8.48;;
57465;SDS011;67033;44.984;20.068;2023-04-03T16:36:31;15.55;;;5.43;;
57465;SDS011;67033;44.984;20.068;2023-04-03T16:38:57;48.75;;;13.77;;
57465;SDS011;67033;44.984;20.068;2023-04-03T16:41:23;45.50;;;14.55;;
57465;SDS011;67033;44.984;20.068;2023-04-03T16:43:48;23.23;;;7.97;;
57465;SDS011;67033;44.984;20.068;2023-04-03T16:46:15;68.22;;;15.02;;
57465;SDS011;67033;44.984;20.068;2023-04-03T16:48:41;53.03;;;16.95;;
57465;SDS011;67033;44.984;20.068;2023-04-03T16:51:07;27.05;;;8.60;;
57465;SDS011;67033;44.984;20.068;2023-04-03T16:53:33;24.70;;;6.50;;